createdAt,value
2024-03-16T00:02:21.144Z,100637.44
2024-03-16T00:04:47.632Z,100645.53
2024-03-16T00:07:14.587Z,100654.00
2024-03-16T00:09:41.375Z,100652.13
2024-03-16T00:12:08.174Z,100653.50
2024-03-16T00:14:34.863Z,100659.59
2024-03-16T00:17:02.329Z,100661.97
2024-03-16T00:19:29.043Z,100668.56
2024-03-16T00:21:55.611Z,100671.59
2024-03-16T00:24:22.113Z,100665.34
2024-03-16T00:26:49.131Z,100675.50
2024-03-16T00:29:16.458Z,100674.16
2024-03-16T00:31:45.010Z,100681.22
2024-03-16T00:34:11.912Z,100673.81
2024-03-16T00:36:38.767Z,100682.06
2024-03-16T00:39:16.331Z,100682.25
2024-03-16T00:41:43.928Z,100685.63
2024-03-16T00:44:10.922Z,100690.69
2024-03-16T00:46:37.929Z,100690.84
2024-03-16T00:49:04.875Z,100700.97
2024-03-16T00:51:31.797Z,100713.28
2024-03-16T00:53:58.454Z,100704.53
2024-03-16T00:56:25.441Z,100703.00
2024-03-16T00:58:52.000Z,100700.28
2024-03-16T01:01:18.682Z,100706.03
2024-03-16T01:03:45.334Z,100709.06
2024-03-16T01:06:12.701Z,100715.50
2024-03-16T01:08:39.363Z,100702.63
2024-03-16T01:11:07.150Z,100714.28
2024-03-16T01:13:33.840Z,100725.41
2024-03-16T01:16:00.553Z,100728.13
2024-03-16T01:18:27.254Z,100732.03
2024-03-16T01:20:53.934Z,100726.78
2024-03-16T01:23:20.827Z,100726.41
2024-03-16T01:25:48.236Z,100732.00
2024-03-16T01:28:14.896Z,100740.59
2024-03-16T01:30:41.611Z,100743.47
2024-03-16T01:33:08.212Z,100741.44
2024-03-16T01:35:34.865Z,100753.75
2024-03-16T01:38:01.435Z,100749.84
2024-03-16T01:40:28.063Z,100754.94
2024-03-16T01:42:54.951Z,100755.09
2024-03-16T01:45:21.806Z,100752.03
2024-03-16T01:47:53.869Z,100754.94
2024-03-16T01:50:20.647Z,100758.47
2024-03-16T01:52:47.962Z,100760.50
2024-03-16T01:55:16.400Z,100766.75
2024-03-16T01:57:43.088Z,100762.31
2024-03-16T02:00:13.356Z,100768.44
2024-03-16T02:02:40.657Z,100767.56
2024-03-16T02:05:08.986Z,100779.88
2024-03-16T02:07:40.403Z,100780.41
2024-03-16T02:10:11.317Z,100779.75
2024-03-16T02:12:38.172Z,100779.94
2024-03-16T02:15:05.527Z,100777.88
2024-03-16T02:17:32.244Z,100783.78
2024-03-16T02:19:58.881Z,100790.22
2024-03-16T02:22:25.789Z,100792.41
2024-03-16T02:24:52.575Z,100805.09
2024-03-16T02:27:21.132Z,100809.88
2024-03-16T02:29:48.075Z,100808.50
2024-03-16T02:34:52.562Z,100819.28
2024-03-16T02:37:20.242Z,100817.91
2024-03-16T02:39:47.039Z,100825.47
2024-03-16T02:42:13.689Z,100829.22
2024-03-16T02:44:42.180Z,100835.72
2024-03-16T02:47:11.359Z,100825.59
2024-03-16T02:49:37.989Z,100824.41
2024-03-16T02:52:07.695Z,100837.78
2024-03-16T02:54:34.592Z,100836.06
2024-03-16T02:57:01.124Z,100825.22
2024-03-16T02:59:30.941Z,100831.84
2024-03-16T03:01:58.746Z,100847.91
2024-03-16T03:04:25.415Z,100836.56
2024-03-16T03:06:52.051Z,100850.72
2024-03-16T03:09:19.266Z,100852.59
2024-03-16T03:11:46.554Z,100861.00
2024-03-16T03:14:16.263Z,100865.41
2024-03-16T03:16:42.848Z,100866.25
2024-03-16T03:19:10.161Z,100881.38
2024-03-16T03:21:36.914Z,100884.44
2024-03-16T03:24:04.475Z,100897.72
2024-03-16T03:26:31.694Z,100892.75
2024-03-16T03:28:58.683Z,100890.47
2024-03-16T03:31:25.468Z,100897.44
2024-03-16T03:33:52.205Z,100902.41
2024-03-16T03:36:19.305Z,100904.91
2024-03-16T03:38:45.843Z,100914.66
2024-03-16T03:41:12.407Z,100928.91
2024-03-16T03:43:39.016Z,100926.69
2024-03-16T03:46:06.263Z,100927.34
2024-03-16T03:48:37.639Z,100934.66
2024-03-16T03:51:05.005Z,100931.53
2024-03-16T03:53:31.971Z,100948.38
2024-03-16T03:56:01.098Z,100962.59
2024-03-16T03:58:28.655Z,100957.72
2024-03-16T04:00:55.301Z,100971.03
2024-03-16T04:03:21.934Z,100978.53
2024-03-16T04:05:53.001Z,100981.53
2024-03-16T04:08:19.673Z,100984.38
2024-03-16T04:10:46.289Z,100979.91
2024-03-16T04:13:13.896Z,100974.13
2024-03-16T04:15:40.603Z,100986.31
2024-03-16T04:18:07.343Z,100986.00
2024-03-16T04:20:33.897Z,100987.97
2024-03-16T04:23:02.561Z,100992.31
2024-03-16T04:25:29.327Z,101003.19
2024-03-16T04:27:56.120Z,101014.59
2024-03-16T04:30:22.691Z,101021.66
2024-03-16T04:32:49.330Z,101018.22
2024-03-16T04:35:16.009Z,101023.66
2024-03-16T04:37:42.484Z,101032.53
2024-03-16T04:40:09.633Z,101041.66
2024-03-16T04:42:36.305Z,101049.72
2024-03-16T04:45:02.956Z,101048.81
2024-03-16T04:47:29.547Z,101062.38
2024-03-16T04:49:56.095Z,101062.25
2024-03-16T04:52:22.635Z,101065.56
2024-03-16T04:54:49.266Z,101071.31
2024-03-16T04:57:15.852Z,101078.00
2024-03-16T04:59:42.362Z,101082.38
2024-03-16T05:02:09.005Z,101080.94
2024-03-16T05:04:35.755Z,101084.38
2024-03-16T05:07:02.574Z,101091.72
2024-03-16T05:09:29.918Z,101096.38
2024-03-16T05:11:56.731Z,101101.28
2024-03-16T05:14:23.414Z,101104.03
2024-03-16T05:16:49.967Z,101116.72
2024-03-16T05:19:16.561Z,101120.72
2024-03-16T05:21:43.602Z,101117.41
2024-03-16T05:24:10.365Z,101120.38
2024-03-16T05:26:37.956Z,101127.69
2024-03-16T05:29:04.688Z,101130.19
2024-03-16T05:31:33.218Z,101130.38
2024-03-16T05:34:00.298Z,101137.00
2024-03-16T05:36:27.115Z,101138.16
2024-03-16T05:38:55.326Z,101148.00
2024-03-16T05:41:21.875Z,101152.06
2024-03-16T05:43:48.553Z,101165.53
2024-03-16T05:46:15.150Z,101168.41
2024-03-16T05:48:42.012Z,101172.03
2024-03-16T05:51:08.658Z,101185.84
2024-03-16T05:53:35.290Z,101187.72
2024-03-16T05:56:01.856Z,101186.56
2024-03-16T05:58:29.918Z,101190.81
2024-03-16T06:00:57.722Z,101203.84
2024-03-16T06:03:27.182Z,101206.41
2024-03-16T06:05:53.880Z,101212.78
2024-03-16T06:08:20.628Z,101220.28
2024-03-16T06:10:51.761Z,101227.25
2024-03-16T06:13:18.412Z,101233.78
2024-03-16T06:15:45.047Z,101241.84
2024-03-16T06:18:11.599Z,101249.50
2024-03-16T06:20:38.546Z,101255.91
2024-03-16T06:23:11.273Z,101263.53
2024-03-16T06:25:48.070Z,101266.09
2024-03-16T06:28:18.146Z,101280.97
2024-03-16T06:30:53.420Z,101282.69
2024-03-16T06:33:31.972Z,101296.28
2024-03-16T06:35:58.789Z,101295.88
2024-03-16T06:38:25.590Z,101302.66
2024-03-16T06:40:52.157Z,101297.28
2024-03-16T06:43:18.819Z,101309.59
2024-03-16T06:45:45.551Z,101311.81
2024-03-16T06:48:12.530Z,101321.44
2024-03-16T06:50:39.138Z,101333.00
2024-03-16T06:53:07.567Z,101337.06
2024-03-16T06:55:34.197Z,101341.16
2024-03-16T06:58:00.858Z,101339.88
2024-03-16T07:00:27.679Z,101348.88
2024-03-16T07:02:54.381Z,101368.28
2024-03-16T07:05:20.915Z,101359.22
2024-03-16T07:07:47.434Z,101373.41
2024-03-16T07:10:16.082Z,101373.00
2024-03-16T07:12:42.807Z,101385.78
2024-03-16T07:15:09.480Z,101397.16
2024-03-16T07:17:36.139Z,101397.53
2024-03-16T07:20:03.798Z,101410.47
2024-03-16T07:22:30.453Z,101422.06
2024-03-16T07:24:56.992Z,101424.06
2024-03-16T07:27:23.548Z,101433.41
2024-03-16T07:29:50.133Z,101441.78
2024-03-16T07:32:16.748Z,101449.06
2024-03-16T07:34:43.326Z,101457.00
2024-03-16T07:37:09.995Z,101456.31
2024-03-16T07:39:36.546Z,101457.69
2024-03-16T07:42:03.294Z,101459.56
2024-03-16T07:44:31.291Z,101469.94
2024-03-16T07:46:57.942Z,101469.31
2024-03-16T07:49:24.584Z,101473.47
2024-03-16T07:51:51.189Z,101473.09
2024-03-16T07:54:17.887Z,101483.84
2024-03-16T07:56:44.921Z,101490.09
2024-03-16T07:59:12.284Z,101497.22
2024-03-16T08:01:38.880Z,101494.38
2024-03-16T08:04:05.640Z,101498.81
2024-03-16T08:06:32.719Z,101503.72
2024-03-16T08:08:59.701Z,101517.53
2024-03-16T08:11:28.884Z,101514.84
2024-03-16T08:13:55.480Z,101516.25
2024-03-16T08:16:22.315Z,101522.50
2024-03-16T08:18:49.264Z,101529.88
2024-03-16T08:21:17.429Z,101529.47
2024-03-16T08:23:46.899Z,101539.53
2024-03-16T08:26:14.227Z,101541.69
2024-03-16T08:28:41.013Z,101537.84
2024-03-16T08:31:07.711Z,101544.13
2024-03-16T08:33:34.453Z,101545.81
2024-03-16T08:36:01.104Z,101555.03
2024-03-16T08:38:28.088Z,101554.03
2024-03-16T08:40:56.880Z,101565.13
2024-03-16T08:43:23.755Z,101559.44
2024-03-16T08:45:50.448Z,101562.69
2024-03-16T08:48:17.209Z,101567.06
2024-03-16T08:50:43.786Z,101567.66
2024-03-16T08:53:10.336Z,101576.53
2024-03-16T08:55:37.188Z,101580.81
2024-03-16T08:58:04.902Z,101582.53
2024-03-16T09:00:31.816Z,101587.75
2024-03-16T09:02:58.683Z,101588.19
2024-03-16T09:05:26.877Z,101586.34
2024-03-16T09:07:53.485Z,101588.25
2024-03-16T09:10:21.433Z,101595.41
2024-03-16T09:12:48.496Z,101594.25
2024-03-16T09:15:17.024Z,101601.56
2024-03-16T09:17:43.648Z,101606.78
2024-03-16T09:20:11.757Z,101610.09
2024-03-16T09:22:38.938Z,101612.63
2024-03-16T09:25:10.094Z,101621.03
2024-03-16T09:27:37.114Z,101629.69
2024-03-16T09:30:09.734Z,101639.22
2024-03-16T09:32:37.902Z,101639.97
2024-03-16T09:35:08.680Z,101640.06
2024-03-16T09:37:35.264Z,101650.88
2024-03-16T09:40:02.233Z,101653.97
2024-03-16T09:42:29.858Z,101654.31
